Port Clarence, Alaska
Current Conditions -  °F | °C
As of 5:31 PM on Saturday 20 Dec 2014 (Local Time) from PATE Reporting Station
Light Snow Light Snow  
Wind Chill: -8°   Ceiling: 800
Heat Index:   Visibility: 3mi
Dew Point:   Wind: 10mph
Humidity: 85%   Direction: 10°N
Pressure: 29.41"   Gusts: NA
Location:  65.26°N, 166.85°W
Report Text: PATE 210231Z AUTO 01009KT 3SM -SN BR OVC008 M14/M16 A2941 RMK AO2 CIG 005V012 P0000 FZRANO
Loading
Personal Weather Stations






























Interactive Weather Map New forecast layout! Learn more

10-Day Weather Forecast

Advertisements
Track Severe Weather on mobile